sensor_id;sensor_type;location;lat;lon;timestamp;pressure;altitude;pressure_sealevel;temperature;humidity
69257;BME280;56376;53.356;-1.748;2023-05-25T00:01:01;100742.97;;;14.22;100.00
69257;BME280;56376;53.356;-1.748;2023-05-25T00:03:28;100744.63;;;14.24;100.00
69257;BME280;56376;53.356;-1.748;2023-05-25T00:05:55;100754.19;;;14.27;100.00
69257;BME280;56376;53.356;-1.748;2023-05-25T00:08:22;100751.56;;;14.27;100.00
69257;BME280;56376;53.356;-1.748;2023-05-25T00:10:47;100748.84;;;14.28;100.00
69257;BME280;56376;53.356;-1.748;2023-05-25T00:13:12;100750.63;;;14.28;100.00
69257;BME280;56376;53.356;-1.748;2023-05-25T00:15:38;100759.38;;;14.28;100.00
69257;BME280;56376;53.356;-1.748;2023-05-25T00:18:03;100761.09;;;14.29;100.00
69257;BME280;56376;53.356;-1.748;2023-05-25T00:20:29;100763.66;;;14.31;100.00
69257;BME280;56376;53.356;-1.748;2023-05-25T00:22:54;100754.94;;;14.31;100.00
69257;BME280;56376;53.356;-1.748;2023-05-25T00:25:20;100766.28;;;14.31;100.00
69257;BME280;56376;53.356;-1.748;2023-05-25T00:27:45;100757.53;;;14.32;100.00
69257;BME280;56376;53.356;-1.748;2023-05-25T00:30:11;100760.16;;;14.32;100.00
69257;BME280;56376;53.356;-1.748;2023-05-25T00:32:37;100759.28;;;14.32;100.00
69257;BME280;56376;53.356;-1.748;2023-05-25T00:35:02;100764.59;;;14.30;100.00
69257;BME280;56376;53.356;-1.748;2023-05-25T00:37:28;100769.00;;;14.29;100.00
69257;BME280;56376;53.356;-1.748;2023-05-25T00:39:53;100759.38;;;14.28;100.00
69257;BME280;56376;53.356;-1.748;2023-05-25T00:42:19;100758.63;;;14.25;100.00
69257;BME280;56376;53.356;-1.748;2023-05-25T00:44:44;100762.09;;;14.25;100.00
69257;BME280;56376;53.356;-1.748;2023-05-25T00:47:10;100756.94;;;14.22;100.00
69257;BME280;56376;53.356;-1.748;2023-05-25T00:49:36;100760.53;;;14.20;100.00
69257;BME280;56376;53.356;-1.748;2023-05-25T00:52:02;100759.72;;;14.18;100.00
69257;BME280;56376;53.356;-1.748;2023-05-25T00:54:28;100768.53;;;14.17;100.00
69257;BME280;56376;53.356;-1.748;2023-05-25T00:57:00;100757.16;;;14.16;100.00
69257;BME280;56376;53.356;-1.748;2023-05-25T00:59:38;100771.16;;;14.17;100.00
69257;BME280;56376;53.356;-1.748;2023-05-25T01:02:10;100765.91;;;14.17;100.00
69257;BME280;56376;53.356;-1.748;2023-05-25T01:04:56;100777.25;;;14.17;100.00
69257;BME280;56376;53.356;-1.748;2023-05-25T01:07:25;100769.41;;;14.16;100.00
69257;BME280;56376;53.356;-1.748;2023-05-25T01:09:57;100765.94;;;14.15;100.00
69257;BME280;56376;53.356;-1.748;2023-05-25T01:12:23;100763.25;;;14.17;100.00
69257;BME280;56376;53.356;-1.748;2023-05-25T01:14:51;100765.03;;;14.16;100.00
69257;BME280;56376;53.356;-1.748;2023-05-25T01:17:17;100767.72;;;14.15;100.00
69257;BME280;56376;53.356;-1.748;2023-05-25T01:19:44;100767.72;;;14.15;100.00
69257;BME280;56376;53.356;-1.748;2023-05-25T01:24:59;100763.41;;;14.12;100.00
69257;BME280;56376;53.356;-1.748;2023-05-25T01:27:40;100762.56;;;14.12;100.00
69257;BME280;56376;53.356;-1.748;2023-05-25T01:30:12;100772.22;;;14.11;100.00
69257;BME280;56376;53.356;-1.748;2023-05-25T01:32:39;100767.00;;;14.10;100.00
69257;BME280;56376;53.356;-1.748;2023-05-25T01:35:05;100763.50;;;14.09;100.00
69257;BME280;56376;53.356;-1.748;2023-05-25T01:37:34;100763.50;;;14.09;100.00
69257;BME280;56376;53.356;-1.748;2023-05-25T01:40:04;100767.94;;;14.07;100.00
69257;BME280;56376;53.356;-1.748;2023-05-25T01:42:30;100764.47;;;14.06;100.00
69257;BME280;56376;53.356;-1.748;2023-05-25T01:44:57;100769.72;;;14.06;100.00
69257;BME280;56376;53.356;-1.748;2023-05-25T01:53:01;100763.56;;;14.06;100.00
69257;BME280;56376;53.356;-1.748;2023-05-25T01:55:29;100769.72;;;14.06;100.00
69257;BME280;56376;53.356;-1.748;2023-05-25T01:57:58;100768.84;;;14.06;100.00
69257;BME280;56376;53.356;-1.748;2023-05-25T02:00:25;100767.97;;;14.05;100.00
69257;BME280;56376;53.356;-1.748;2023-05-25T02:02:52;100763.66;;;14.04;100.00
69257;BME280;56376;53.356;-1.748;2023-05-25T02:05:19;100765.47;;;14.02;100.00
69257;BME280;56376;53.356;-1.748;2023-05-25T02:07:45;100769.84;;;14.02;100.00
69257;BME280;56376;53.356;-1.748;2023-05-25T02:10:10;100766.28;;;14.04;100.00
69257;BME280;56376;53.356;-1.748;2023-05-25T02:12:35;100763.69;;;14.03;100.00
69257;BME280;56376;53.356;-1.748;2023-05-25T02:15:01;100771.56;;;14.03;100.00
69257;BME280;56376;53.356;-1.748;2023-05-25T02:17:26;100760.16;;;14.04;100.00
69257;BME280;56376;53.356;-1.748;2023-05-25T02:19:52;100757.53;;;14.04;100.00
69257;BME280;56376;53.356;-1.748;2023-05-25T02:22:19;100767.22;;;14.02;100.00
69257;BME280;56376;53.356;-1.748;2023-05-25T02:24:45;100767.22;;;14.02;100.00
69257;BME280;56376;53.356;-1.748;2023-05-25T02:27:10;100766.38;;;14.01;100.00
69257;BME280;56376;53.356;-1.748;2023-05-25T02:29:37;100756.84;;;13.97;100.00
69257;BME280;56376;53.356;-1.748;2023-05-25T02:32:02;100763.81;;;13.98;100.00
69257;BME280;56376;53.356;-1.748;2023-05-25T02:34:28;100764.75;;;13.97;100.00
69257;BME280;56376;53.356;-1.748;2023-05-25T02:36:53;100759.47;;;13.97;100.00
69257;BME280;56376;53.356;-1.748;2023-05-25T02:39:19;100765.59;;;13.98;100.00
69257;BME280;56376;53.356;-1.748;2023-05-25T02:41:44;100768.28;;;13.96;100.00
69257;BME280;56376;53.356;-1.748;2023-05-25T02:44:09;100777.13;;;13.94;100.00
69257;BME280;56376;53.356;-1.748;2023-05-25T02:46:35;100774.56;;;13.91;100.00
69257;BME280;56376;53.356;-1.748;2023-05-25T02:49:00;100772.88;;;13.88;100.00
69257;BME280;56376;53.356;-1.748;2023-05-25T02:51:27;100771.19;;;13.87;100.00
69257;BME280;56376;53.356;-1.748;2023-05-25T02:53:52;100769.41;;;13.88;100.00
69257;BME280;56376;53.356;-1.748;2023-05-25T02:56:18;100773.81;;;13.87;100.00
69257;BME280;56376;53.356;-1.748;2023-05-25T02:58:43;100772.84;;;13.90;100.00
69257;BME280;56376;53.356;-1.748;2023-05-25T03:01:09;100766.75;;;13.89;100.00
69257;BME280;56376;53.356;-1.748;2023-05-25T03:03:35;100770.25;;;13.88;100.00
69257;BME280;56376;53.356;-1.748;2023-05-25T03:06:02;100777.28;;;13.88;100.00
69257;BME280;56376;53.356;-1.748;2023-05-25T03:08:28;100772.94;;;13.87;100.00
69257;BME280;56376;53.356;-1.748;2023-05-25T03:10:54;100777.34;;;13.86;100.00
69257;BME280;56376;53.356;-1.748;2023-05-25T03:13:20;100777.34;;;13.86;100.00
69257;BME280;56376;53.356;-1.748;2023-05-25T03:15:45;100783.50;;;13.85;100.00
69257;BME280;56376;53.356;-1.748;2023-05-25T03:18:10;100779.09;;;13.85;100.00
69257;BME280;56376;53.356;-1.748;2023-05-25T03:20:36;100780.00;;;13.84;100.00
69257;BME280;56376;53.356;-1.748;2023-05-25T03:23:01;100790.50;;;13.84;100.00
69257;BME280;56376;53.356;-1.748;2023-05-25T03:25:27;100780.03;;;13.83;100.00
69257;BME280;56376;53.356;-1.748;2023-05-25T03:27:52;100774.84;;;13.81;100.00
69257;BME280;56376;53.356;-1.748;2023-05-25T03:30:19;100785.38;;;13.80;100.00
69257;BME280;56376;53.356;-1.748;2023-05-25T03:32:45;100777.59;;;13.78;100.00
69257;BME280;56376;53.356;-1.748;2023-05-25T03:35:10;100785.47;;;13.78;100.00
69257;BME280;56376;53.356;-1.748;2023-05-25T03:37:35;100780.25;;;13.77;100.00
69257;BME280;56376;53.356;-1.748;2023-05-25T03:40:01;100794.22;;;13.77;100.00
69257;BME280;56376;53.356;-1.748;2023-05-25T03:42:27;100795.13;;;13.76;100.00
69257;BME280;56376;53.356;-1.748;2023-05-25T03:44:52;100789.06;;;13.74;100.00
69257;BME280;56376;53.356;-1.748;2023-05-25T03:47:18;100780.47;;;13.69;100.00
69257;BME280;56376;53.356;-1.748;2023-05-25T03:49:43;100796.16;;;13.71;100.00
69257;BME280;56376;53.356;-1.748;2023-05-25T03:52:08;100791.78;;;13.71;100.00
69257;BME280;56376;53.356;-1.748;2023-05-25T03:54:34;100794.41;;;13.71;100.00
69257;BME280;56376;53.356;-1.748;2023-05-25T03:56:59;100794.47;;;13.68;100.00
69257;BME280;56376;53.356;-1.748;2023-05-25T03:59:26;100802.34;;;13.68;100.00
69257;BME280;56376;53.356;-1.748;2023-05-25T04:01:51;100800.66;;;13.67;100.00
69257;BME280;56376;53.356;-1.748;2023-05-25T04:04:17;100804.13;;;13.68;100.00
69257;BME280;56376;53.356;-1.748;2023-05-25T04:06:42;100801.56;;;13.66;100.00
69257;BME280;56376;53.356;-1.748;2023-05-25T04:09:10;100805.94;;;13.66;100.00
69257;BME280;56376;53.356;-1.748;2023-05-25T04:11:36;100803.38;;;13.64;100.00
69257;BME280;56376;53.356;-1.748;2023-05-25T04:14:01;100811.25;;;13.64;100.00
69257;BME280;56376;53.356;-1.748;2023-05-25T04:16:27;100813.88;;;13.64;100.00
69257;BME280;56376;53.356;-1.748;2023-05-25T04:18:53;100812.13;;;13.63;100.00
69257;BME280;56376;53.356;-1.748;2023-05-25T04:21:18;100818.31;;;13.60;100.00
69257;BME280;56376;53.356;-1.748;2023-05-25T04:23:44;100813.13;;;13.59;100.00
69257;BME280;56376;53.356;-1.748;2023-05-25T04:26:09;100813.97;;;13.61;100.00
69257;BME280;56376;53.356;-1.748;2023-05-25T04:28:35;100820.09;;;13.60;100.00
69257;BME280;56376;53.356;-1.748;2023-05-25T04:31:07;100827.03;;;13.62;100.00
69257;BME280;56376;53.356;-1.748;2023-05-25T04:33:33;100827.94;;;13.61;100.00
69257;BME280;56376;53.356;-1.748;2023-05-25T04:36:03;100830.56;;;13.61;100.00
69257;BME280;56376;53.356;-1.748;2023-05-25T04:38:29;100833.19;;;13.61;100.00
69257;BME280;56376;53.356;-1.748;2023-05-25T04:40:54;100833.28;;;13.58;100.00
69257;BME280;56376;53.356;-1.748;2023-05-25T04:43:22;100843.72;;;13.60;100.00
69257;BME280;56376;53.356;-1.748;2023-05-25T04:45:51;100837.59;;;13.61;100.00
69257;BME280;56376;53.356;-1.748;2023-05-25T04:48:16;100838.44;;;13.61;100.00
69257;BME280;56376;53.356;-1.748;2023-05-25T04:50:42;100842.84;;;13.61;100.00
69257;BME280;56376;53.356;-1.748;2023-05-25T04:53:07;100837.66;;;13.58;100.00
69257;BME280;56376;53.356;-1.748;2023-05-25T04:55:33;100845.59;;;13.56;100.00
69257;BME280;56376;53.356;-1.748;2023-05-25T04:57:58;100851.69;;;13.57;100.00
69257;BME280;56376;53.356;-1.748;2023-05-25T05:00:24;100855.19;;;13.57;100.00
69257;BME280;56376;53.356;-1.748;2023-05-25T05:02:49;100856.03;;;13.58;100.00
69257;BME280;56376;53.356;-1.748;2023-05-25T05:05:16;100849.94;;;13.57;100.00
69257;BME280;56376;53.356;-1.748;2023-05-25T05:07:42;100856.91;;;13.58;100.00
69257;BME280;56376;53.356;-1.748;2023-05-25T05:10:07;100849.84;;;13.60;100.00
69257;BME280;56376;53.356;-1.748;2023-05-25T05:12:33;100860.31;;;13.62;100.00
69257;BME280;56376;53.356;-1.748;2023-05-25T05:14:58;100856.75;;;13.63;100.00
69257;BME280;56376;53.356;-1.748;2023-05-25T05:17:24;100869.88;;;13.63;100.00
69257;BME280;56376;53.356;-1.748;2023-05-25T05:19:50;100857.69;;;13.62;100.00
69257;BME280;56376;53.356;-1.748;2023-05-25T05:22:16;100860.28;;;13.63;100.00
69257;BME280;56376;53.356;-1.748;2023-05-25T05:24:41;100866.41;;;13.62;100.00
69257;BME280;56376;53.356;-1.748;2023-05-25T05:27:07;100880.38;;;13.63;100.00
69257;BME280;56376;53.356;-1.748;2023-05-25T05:29:32;100873.44;;;13.62;100.00
69257;BME280;56376;53.356;-1.748;2023-05-25T05:31:59;100882.13;;;13.64;100.00
69257;BME280;56376;53.356;-1.748;2023-05-25T05:34:25;100880.38;;;13.64;100.00
69257;BME280;56376;53.356;-1.748;2023-05-25T05:36:50;100888.16;;;13.68;100.00
69257;BME280;56376;53.356;-1.748;2023-05-25T05:39:16;100887.28;;;13.67;100.00
69257;BME280;56376;53.356;-1.748;2023-05-25T05:41:41;100895.06;;;13.70;100.00
69257;BME280;56376;53.356;-1.748;2023-05-25T05:44:10;100892.34;;;13.75;100.00
69257;BME280;56376;53.356;-1.748;2023-05-25T05:46:36;100893.88;;;13.82;100.00
69257;BME280;56376;53.356;-1.748;2023-05-25T05:49:01;100887.59;;;13.88;100.00
69257;BME280;56376;53.356;-1.748;2023-05-25T05:51:28;100883.13;;;13.91;100.00
69257;BME280;56376;53.356;-1.748;2023-05-25T05:53:53;100891.69;;;13.98;100.00
69257;BME280;56376;53.356;-1.748;2023-05-25T05:56:18;100891.59;;;14.01;100.00
69257;BME280;56376;53.356;-1.748;2023-05-25T05:58:44;100892.47;;;14.01;100.00
69257;BME280;56376;53.356;-1.748;2023-05-25T06:01:11;100887.28;;;13.98;100.00
69257;BME280;56376;53.356;-1.748;2023-05-25T06:03:36;100889.78;;;14.03;100.00
69257;BME280;56376;53.356;-1.748;2023-05-25T06:06:03;100885.22;;;14.10;100.00
69257;BME280;56376;53.356;-1.748;2023-05-25T06:08:28;100891.16;;;14.16;100.00
69257;BME280;56376;53.356;-1.748;2023-05-25T06:10:53;100898.94;;;14.19;100.00
69257;BME280;56376;53.356;-1.748;2023-05-25T06:13:20;100902.25;;;14.26;100.00
69257;BME280;56376;53.356;-1.748;2023-05-25T06:15:46;100890.53;;;14.36;100.00
69257;BME280;56376;53.356;-1.748;2023-05-25T06:18:11;100897.31;;;14.45;100.00
69257;BME280;56376;53.356;-1.748;2023-05-25T06:20:36;100888.25;;;14.55;100.00
69257;BME280;56376;53.356;-1.748;2023-05-25T06:23:02;100888.75;;;14.66;100.00
69257;BME280;56376;53.356;-1.748;2023-05-25T06:25:27;100896.34;;;14.77;99.98
69257;BME280;56376;53.356;-1.748;2023-05-25T06:27:53;100898.72;;;14.85;98.88
69257;BME280;56376;53.356;-1.748;2023-05-25T06:30:18;100891.41;;;14.95;98.86
69257;BME280;56376;53.356;-1.748;2023-05-25T06:32:44;100890.25;;;15.02;98.41
69257;BME280;56376;53.356;-1.748;2023-05-25T06:35:09;100891.75;;;15.10;97.93
69257;BME280;56376;53.356;-1.748;2023-05-25T06:37:38;100885.41;;;15.16;97.66
69257;BME280;56376;53.356;-1.748;2023-05-25T06:40:04;100889.50;;;15.25;96.98
69257;BME280;56376;53.356;-1.748;2023-05-25T06:42:29;100883.91;;;15.34;96.62
69257;BME280;56376;53.356;-1.748;2023-05-25T06:44:55;100889.56;;;15.48;97.29
69257;BME280;56376;53.356;-1.748;2023-05-25T06:47:20;100887.47;;;15.58;96.86
69257;BME280;56376;53.356;-1.748;2023-05-25T06:49:46;100884.50;;;15.67;95.45
69257;BME280;56376;53.356;-1.748;2023-05-25T06:52:11;100890.41;;;15.75;94.32
69257;BME280;56376;53.356;-1.748;2023-05-25T06:54:36;100879.75;;;15.78;93.96
69257;BME280;56376;53.356;-1.748;2023-05-25T06:57:02;100882.06;;;15.88;93.52
69257;BME280;56376;53.356;-1.748;2023-05-25T06:59:27;100894.81;;;15.98;92.26
69257;BME280;56376;53.356;-1.748;2023-05-25T07:01:53;100897.19;;;16.06;91.01
69257;BME280;56376;53.356;-1.748;2023-05-25T07:04:20;100890.75;;;16.13;90.08
69257;BME280;56376;53.356;-1.748;2023-05-25T07:06:46;100901.13;;;16.18;89.23
69257;BME280;56376;53.356;-1.748;2023-05-25T07:09:12;100901.75;;;16.25;89.01
69257;BME280;56376;53.356;-1.748;2023-05-25T07:11:37;100897.84;;;16.35;88.88
69257;BME280;56376;53.356;-1.748;2023-05-25T07:14:18;100893.88;;;16.47;87.88
69257;BME280;56376;53.356;-1.748;2023-05-25T07:16:43;100904.09;;;16.56;86.56
69257;BME280;56376;53.356;-1.748;2023-05-25T07:19:10;100909.91;;;16.64;86.23
69257;BME280;56376;53.356;-1.748;2023-05-25T07:21:35;100910.56;;;16.69;85.72
69257;BME280;56376;53.356;-1.748;2023-05-25T07:24:02;100911.09;;;16.79;85.85
69257;BME280;56376;53.356;-1.748;2023-05-25T07:26:27;100910.72;;;16.88;85.33
69257;BME280;56376;53.356;-1.748;2023-05-25T07:28:53;100913.13;;;16.94;85.35
69257;BME280;56376;53.356;-1.748;2023-05-25T07:31:18;100910.13;;;17.03;84.62
69257;BME280;56376;53.356;-1.748;2023-05-25T07:33:44;100922.19;;;17.09;83.63
69257;BME280;56376;53.356;-1.748;2023-05-25T07:36:09;100921.03;;;17.16;83.29
69257;BME280;56376;53.356;-1.748;2023-05-25T07:38:35;100928.63;;;17.24;80.62
69257;BME280;56376;53.356;-1.748;2023-05-25T07:41:01;100921.47;;;17.26;77.23
69257;BME280;56376;53.356;-1.748;2023-05-25T07:43:26;100923.03;;;17.32;74.79
69257;BME280;56376;53.356;-1.748;2023-05-25T07:45:52;100933.19;;;17.41;73.18
69257;BME280;56376;53.356;-1.748;2023-05-25T07:48:18;100938.28;;;17.45;71.66
69257;BME280;56376;53.356;-1.748;2023-05-25T07:50:43;100935.31;;;17.53;71.45
69257;BME280;56376;53.356;-1.748;2023-05-25T07:53:09;100939.06;;;17.68;71.21
69257;BME280;56376;53.356;-1.748;2023-05-25T07:55:34;100936.03;;;17.77;70.11
69257;BME280;56376;53.356;-1.748;2023-05-25T07:58:00;100943.66;;;17.85;68.29
69257;BME280;56376;53.356;-1.748;2023-05-25T08:00:25;100935.59;;;17.88;67.93
69257;BME280;56376;53.356;-1.748;2023-05-25T08:02:51;100932.75;;;17.92;68.27
69257;BME280;56376;53.356;-1.748;2023-05-25T08:05:17;100935.00;;;18.02;69.60
69257;BME280;56376;53.356;-1.748;2023-05-25T08:07:44;100942.50;;;18.11;67.89
69257;BME280;56376;53.356;-1.748;2023-05-25T08:10:09;100945.63;;;18.19;68.34
69257;BME280;56376;53.356;-1.748;2023-05-25T08:12:35;100944.38;;;18.28;67.85
69257;BME280;56376;53.356;-1.748;2023-05-25T08:15:00;100953.59;;;18.38;66.85
69257;BME280;56376;53.356;-1.748;2023-05-25T08:17:26;100952.53;;;18.42;66.14
69257;BME280;56376;53.356;-1.748;2023-05-25T08:19:53;100948.59;;;18.51;65.50
69257;BME280;56376;53.356;-1.748;2023-05-25T08:22:18;100950.19;;;18.55;65.98
69257;BME280;56376;53.356;-1.748;2023-05-25T08:24:43;100948.88;;;18.64;64.92
69257;BME280;56376;53.356;-1.748;2023-05-25T08:27:09;100954.97;;;18.66;64.31
69257;BME280;56376;53.356;-1.748;2023-05-25T08:29:34;100960.19;;;18.67;64.39
69257;BME280;56376;53.356;-1.748;2023-05-25T08:32:00;100960.03;;;18.70;63.43
69257;BME280;56376;53.356;-1.748;2023-05-25T08:34:25;100966.19;;;18.71;62.99
69257;BME280;56376;53.356;-1.748;2023-05-25T08:36:50;100970.69;;;18.69;63.77
69257;BME280;56376;53.356;-1.748;2023-05-25T08:39:16;100965.69;;;18.63;63.96
69257;BME280;56376;53.356;-1.748;2023-05-25T08:41:43;100969.25;;;18.62;64.56
69257;BME280;56376;53.356;-1.748;2023-05-25T08:44:09;100969.97;;;18.65;60.72
69257;BME280;56376;53.356;-1.748;2023-05-25T08:46:35;100965.81;;;18.59;60.17
69257;BME280;56376;53.356;-1.748;2023-05-25T08:49:11;100962.41;;;18.57;61.71
69257;BME280;56376;53.356;-1.748;2023-05-25T08:51:45;100970.19;;;18.60;61.94
69257;BME280;56376;53.356;-1.748;2023-05-25T08:54:12;100963.97;;;18.62;61.51
69257;BME280;56376;53.356;-1.748;2023-05-25T08:56:48;100965.81;;;18.59;61.93
69257;BME280;56376;53.356;-1.748;2023-05-25T09:01:51;100959.66;;;18.59;62.83
69257;BME280;56376;53.356;-1.748;2023-05-25T09:04:18;100963.31;;;18.56;63.44
69257;BME280;56376;53.356;-1.748;2023-05-25T09:06:45;100971.75;;;18.46;63.96
69257;BME280;56376;53.356;-1.748;2023-05-25T09:09:12;100969.53;;;18.36;63.91
69257;BME280;56376;53.356;-1.748;2023-05-25T09:11:38;100964.69;;;18.27;64.91
69257;BME280;56376;53.356;-1.748;2023-05-25T09:14:06;100962.16;;;18.24;65.40
69257;BME280;56376;53.356;-1.748;2023-05-25T09:16:32;100965.53;;;18.28;65.59
69257;BME280;56376;53.356;-1.748;2023-05-25T09:18:58;100970.81;;;18.28;65.61
69257;BME280;56376;53.356;-1.748;2023-05-25T09:21:25;100972.25;;;18.35;66.06
69257;BME280;56376;53.356;-1.748;2023-05-25T09:23:50;100971.25;;;18.37;65.55
69257;BME280;56376;53.356;-1.748;2023-05-25T09:26:16;100973.13;;;18.35;63.85
69257;BME280;56376;53.356;-1.748;2023-05-25T09:28:46;100980.06;;;18.38;64.31
69257;BME280;56376;53.356;-1.748;2023-05-25T09:31:15;100977.09;;;18.44;63.95
69257;BME280;56376;53.356;-1.748;2023-05-25T09:33:41;100975.06;;;18.51;63.47
69257;BME280;56376;53.356;-1.748;2023-05-25T09:36:07;100986.13;;;18.59;63.63
69257;BME280;56376;53.356;-1.748;2023-05-25T09:38:33;100986.78;;;18.64;63.53
69257;BME280;56376;53.356;-1.748;2023-05-25T09:40:59;100979.47;;;18.69;63.99
69257;BME280;56376;53.356;-1.748;2023-05-25T09:43:25;100985.41;;;18.74;63.66
69257;BME280;56376;53.356;-1.748;2023-05-25T09:45:51;100982.44;;;18.82;63.89
69257;BME280;56376;53.356;-1.748;2023-05-25T09:48:17;100980.41;;;18.87;60.87
69257;BME280;56376;53.356;-1.748;2023-05-25T09:50:42;100985.66;;;18.89;60.93
69257;BME280;56376;53.356;-1.748;2023-05-25T09:53:08;100983.00;;;18.89;60.52
69257;BME280;56376;53.356;-1.748;2023-05-25T09:55:35;100985.44;;;18.93;59.88
69257;BME280;56376;53.356;-1.748;2023-05-25T09:58:00;100980.84;;;18.97;59.69
69257;BME280;56376;53.356;-1.748;2023-05-25T10:00:26;100980.47;;;19.05;58.89
69257;BME280;56376;53.356;-1.748;2023-05-25T10:02:51;100984.69;;;19.09;58.98
69257;BME280;56376;53.356;-1.748;2023-05-25T10:05:17;100985.72;;;19.06;59.17
69257;BME280;56376;53.356;-1.748;2023-05-25T10:07:46;100986.56;;;19.07;59.55
69257;BME280;56376;53.356;-1.748;2023-05-25T10:10:15;100991.84;;;19.07;60.29
69257;BME280;56376;53.356;-1.748;2023-05-25T10:12:41;100988.13;;;19.11;60.12
69257;BME280;56376;53.356;-1.748;2023-05-25T10:15:08;100989.78;;;19.13;60.22
69257;BME280;56376;53.356;-1.748;2023-05-25T10:17:50;100979.81;;;19.18;59.83
69257;BME280;56376;53.356;-1.748;2023-05-25T10:20:16;100982.38;;;19.20;60.64
69257;BME280;56376;53.356;-1.748;2023-05-25T10:23:04;100985.09;;;19.18;61.09
69257;BME280;56376;53.356;-1.748;2023-05-25T10:25:42;100985.19;;;19.17;60.80
69257;BME280;56376;53.356;-1.748;2023-05-25T10:28:21;100990.31;;;19.20;60.61
69257;BME280;56376;53.356;-1.748;2023-05-25T10:30:51;100982.31;;;19.21;60.96
69257;BME280;56376;53.356;-1.748;2023-05-25T10:33:19;100994.38;;;19.27;59.74
69257;BME280;56376;53.356;-1.748;2023-05-25T10:35:45;100994.09;;;19.33;59.64
69257;BME280;56376;53.356;-1.748;2023-05-25T10:38:11;100996.38;;;19.41;58.69
69257;BME280;56376;53.356;-1.748;2023-05-25T10:40:41;101002.19;;;19.48;57.76
69257;BME280;56376;53.356;-1.748;2023-05-25T10:43:08;100991.59;;;19.48;57.33
69257;BME280;56376;53.356;-1.748;2023-05-25T10:45:34;100994.19;;;19.49;57.47
69257;BME280;56376;53.356;-1.748;2023-05-25T10:48:00;100987.88;;;19.52;55.67
69257;BME280;56376;53.356;-1.748;2023-05-25T10:50:26;100995.03;;;19.50;55.85
69257;BME280;56376;53.356;-1.748;2023-05-25T10:53:00;100994.25;;;19.48;55.73
69257;BME280;56376;53.356;-1.748;2023-05-25T10:55:27;100999.47;;;19.49;55.61
69257;BME280;56376;53.356;-1.748;2023-05-25T10:58:13;100993.16;;;19.52;55.60
69257;BME280;56376;53.356;-1.748;2023-05-25T11:00:39;100996.75;;;19.51;56.27
69257;BME280;56376;53.356;-1.748;2023-05-25T11:03:05;101003.94;;;19.49;55.60
69257;BME280;56376;53.356;-1.748;2023-05-25T11:05:39;100998.78;;;19.45;55.25
69257;BME280;56376;53.356;-1.748;2023-05-25T11:08:09;100998.69;;;19.47;55.64
69257;BME280;56376;53.356;-1.748;2023-05-25T11:16:22;101000.09;;;19.54;55.29
69257;BME280;56376;53.356;-1.748;2023-05-25T11:19:00;100993.09;;;19.53;55.42
69257;BME280;56376;53.356;-1.748;2023-05-25T11:26:20;100999.09;;;19.57;55.74
69257;BME280;56376;53.356;-1.748;2023-05-25T11:28:46;100994.03;;;19.52;54.55
69257;BME280;56376;53.356;-1.748;2023-05-25T11:31:12;100989.09;;;19.44;54.30
69257;BME280;56376;53.356;-1.748;2023-05-25T11:33:38;100990.06;;;19.43;55.46
69257;BME280;56376;53.356;-1.748;2023-05-25T11:36:04;100992.53;;;19.46;55.84
69257;BME280;56376;53.356;-1.748;2023-05-25T11:38:31;100994.13;;;19.51;56.09
69257;BME280;56376;53.356;-1.748;2023-05-25T11:40:57;100994.88;;;19.53;55.74
69257;BME280;56376;53.356;-1.748;2023-05-25T11:43:24;100995.66;;;19.55;56.19
69257;BME280;56376;53.356;-1.748;2023-05-25T11:45:54;100995.38;;;19.61;56.31
69257;BME280;56376;53.356;-1.748;2023-05-25T11:48:20;100989.97;;;19.62;56.18
69257;BME280;56376;53.356;-1.748;2023-05-25T11:50:46;100989.34;;;19.57;55.20
69257;BME280;56376;53.356;-1.748;2023-05-25T11:53:11;100992.31;;;19.51;55.24
69257;BME280;56376;53.356;-1.748;2023-05-25T11:55:37;100994.25;;;19.48;55.14
69257;BME280;56376;53.356;-1.748;2023-05-25T11:58:05;100981.09;;;19.46;55.19
69257;BME280;56376;53.356;-1.748;2023-05-25T12:00:31;100987.25;;;19.46;55.70
69257;BME280;56376;53.356;-1.748;2023-05-25T12:02:56;100972.91;;;19.51;56.00
69257;BME280;56376;53.356;-1.748;2023-05-25T12:05:22;100978.06;;;19.54;55.43
69257;BME280;56376;53.356;-1.748;2023-05-25T12:07:48;100984.13;;;19.56;55.54
69257;BME280;56376;53.356;-1.748;2023-05-25T12:10:15;100988.44;;;19.58;56.13
69257;BME280;56376;53.356;-1.748;2023-05-25T12:12:47;100989.78;;;19.67;56.08
69257;BME280;56376;53.356;-1.748;2023-05-25T12:15:21;100981.34;;;19.76;55.94
69257;BME280;56376;53.356;-1.748;2023-05-25T12:17:47;100969.41;;;19.85;55.17
69257;BME280;56376;53.356;-1.748;2023-05-25T12:20:14;100984.84;;;19.94;55.25
69257;BME280;56376;53.356;-1.748;2023-05-25T12:22:41;100981.78;;;20.02;54.80
69257;BME280;56376;53.356;-1.748;2023-05-25T12:25:08;100981.56;;;20.06;55.03
69257;BME280;56376;53.356;-1.748;2023-05-25T12:27:35;100977.16;;;20.05;54.69
69257;BME280;56376;53.356;-1.748;2023-05-25T12:30:00;100967.34;;;20.07;54.80
69257;BME280;56376;53.356;-1.748;2023-05-25T12:32:26;100971.44;;;20.13;54.56
69257;BME280;56376;53.356;-1.748;2023-05-25T12:35:00;100973.34;;;20.11;54.50
69257;BME280;56376;53.356;-1.748;2023-05-25T12:37:26;100976.00;;;20.11;55.68
69257;BME280;56376;53.356;-1.748;2023-05-25T12:39:51;100979.28;;;20.16;55.46
69257;BME280;56376;53.356;-1.748;2023-05-25T12:42:17;100973.00;;;20.17;55.09
69257;BME280;56376;53.356;-1.748;2023-05-25T12:44:44;100966.75;;;20.18;55.43
69257;BME280;56376;53.356;-1.748;2023-05-25T12:47:15;100968.38;;;20.21;55.74
69257;BME280;56376;53.356;-1.748;2023-05-25T12:49:45;100967.38;;;20.23;55.10
69257;BME280;56376;53.356;-1.748;2023-05-25T12:52:30;100977.91;;;20.25;55.00
69257;BME280;56376;53.356;-1.748;2023-05-25T12:54:56;100974.22;;;20.27;54.67